Time;durP1;ratioP1;P1;durP2;ratioP2;P2;SDS_P1;SDS_P2;PMS_P1;PMS_P2;Temp;Humidity;BMP_temperature;BMP_pressure;BME280_temperature;BME280_humidity;BME280_pressure;Samples;Min_cycle;Max_cycle;Signal;HPM_P1;HPM_P2
2021/04/04 00:01:52;;;;;;;18.83;3.30;;;6.60;99.90;;;;;;5154618;27;20049;-58
2021/04/04 00:04:18;;;;;;;13.10;3.00;;;6.60;99.90;;;;;;5154559;27;20126;-58
2021/04/04 00:06:44;;;;;;;13.15;3.78;;;6.50;99.90;;;;;;5154526;27;20056;-58
2021/04/04 00:09:09;;;;;;;16.00;2.97;;;6.50;99.90;;;;;;5154418;27;20099;-58
2021/04/04 00:11:36;;;;;;;20.50;3.80;;;6.50;99.90;;;;;;5154487;27;20039;-58
2021/04/04 00:14:03;;;;;;;16.98;3.47;;;6.40;99.90;;;;;;5154398;27;20043;-57
2021/04/04 00:16:28;;;;;;;12.68;3.70;;;6.50;99.90;;;;;;5154353;27;20069;-58
2021/04/04 00:18:54;;;;;;;10.18;3.03;;;6.50;99.90;;;;;;5154750;27;20485;-57
2021/04/04 00:21:20;;;;;;;14.65;3.00;;;6.50;99.90;;;;;;5154842;27;20050;-58
2021/04/04 00:23:46;;;;;;;14.70;3.42;;;6.50;99.90;;;;;;5154274;27;20042;-58
2021/04/04 00:26:12;;;;;;;14.63;3.20;;;6.50;99.90;;;;;;5154167;27;20043;-58
2021/04/04 00:28:37;;;;;;;18.40;3.60;;;6.50;99.90;;;;;;5153916;27;20536;-58
2021/04/04 00:31:03;;;;;;;13.77;2.80;;;6.50;99.90;;;;;;5153968;27;20483;-57
2021/04/04 00:33:29;;;;;;;16.13;3.63;;;6.50;99.90;;;;;;5154078;27;20039;-58
2021/04/04 00:35:55;;;;;;;18.15;3.10;;;6.50;99.90;;;;;;5154114;27;20099;-58
2021/04/04 00:38:20;;;;;;;15.27;3.10;;;6.60;99.90;;;;;;5154017;27;20046;-58
2021/04/04 00:40:46;;;;;;;19.10;3.35;;;6.50;99.90;;;;;;5153941;27;20042;-58
2021/04/04 00:43:12;;;;;;;11.02;2.38;;;6.50;99.90;;;;;;5153907;27;20042;-58
2021/04/04 00:45:39;;;;;;;18.23;2.33;;;6.50;99.90;;;;;;5153443;27;20037;-57
2021/04/04 00:48:06;;;;;;;20.90;2.85;;;6.50;99.90;;;;;;5153877;27;20043;-58
2021/04/04 00:50:35;;;;;;;12.55;2.17;;;6.50;99.90;;;;;;5153753;27;20026;-58
2021/04/04 00:53:02;;;;;;;10.68;2.20;;;6.50;99.90;;;;;;5153869;27;20047;-57
2021/04/04 00:55:28;;;;;;;12.05;2.50;;;6.40;99.90;;;;;;5153796;27;20077;-58
2021/04/04 00:57:55;;;;;;;14.63;2.65;;;6.50;99.90;;;;;;5153635;27;20408;-58
2021/04/04 01:00:26;;;;;;;18.38;3.30;;;6.40;99.90;;;;;;5153595;27;20476;-57
2021/04/04 01:02:55;;;;;;;11.60;2.70;;;6.40;99.90;;;;;;5153720;27;20039;-58
2021/04/04 01:05:33;;;;;;;16.23;3.30;;;6.50;99.90;;;;;;5153674;27;20176;-57
2021/04/04 01:07:59;;;;;;;16.33;2.17;;;6.50;99.90;;;;;;5153528;27;20050;-58
2021/04/04 01:10:29;;;;;;;9.15;1.80;;;6.50;99.90;;;;;;5153381;27;20042;-58
2021/04/04 01:13:01;;;;;;;10.52;1.95;;;6.50;99.90;;;;;;5153747;27;20034;-58
2021/04/04 01:15:30;;;;;;;14.27;2.58;;;6.50;99.90;;;;;;5153632;27;20043;-57
2021/04/04 01:17:59;;;;;;;8.53;1.90;;;6.50;99.90;;;;;;5153408;27;20464;-58
2021/04/04 01:20:42;;;;;;;11.93;2.00;;;6.50;99.90;;;;;;5153426;27;20054;-58
2021/04/04 01:23:21;;;;;;;14.50;2.47;;;6.50;99.90;;;;;;5153251;27;20412;-58
2021/04/04 01:26:05;;;;;;;13.40;2.03;;;6.50;99.90;;;;;;5153363;27;20480;-58
2021/04/04 01:28:37;;;;;;;10.98;2.58;;;6.50;99.90;;;;;;5153472;27;20129;-58
2021/04/04 01:31:04;;;;;;;8.32;2.40;;;6.50;99.90;;;;;;5153310;27;20117;-58
2021/04/04 01:33:32;;;;;;;13.40;2.03;;;6.50;99.90;;;;;;5152972;27;20047;-57
2021/04/04 01:36:00;;;;;;;14.30;2.40;;;6.50;99.90;;;;;;5153078;27;20054;-58
2021/04/04 01:38:31;;;;;;;12.70;2.20;;;6.40;99.90;;;;;;5153287;27;20137;-58
2021/04/04 01:41:07;;;;;;;12.57;2.42;;;6.50;99.90;;;;;;5153386;27;20095;-58
2021/04/04 01:43:33;;;;;;;13.80;2.28;;;6.40;99.90;;;;;;5153103;27;20540;-58
2021/04/04 01:46:00;;;;;;;20.00;2.42;;;6.40;99.90;;;;;;5153282;27;20047;-57
2021/04/04 01:48:27;;;;;;;9.95;1.98;;;6.50;99.90;;;;;;5153157;27;20507;-58
2021/04/04 01:50:53;;;;;;;12.02;2.75;;;6.50;99.90;;;;;;5133803;27;20415;-58
2021/04/04 01:53:19;;;;;;;12.93;1.83;;;6.50;99.90;;;;;;5134246;27;20091;-58
2021/04/04 01:55:47;;;;;;;10.05;2.40;;;6.50;99.90;;;;;;5152986;27;20074;-57
2021/04/04 01:58:13;;;;;;;7.13;1.35;;;6.50;99.90;;;;;;5153796;27;20054;-58
2021/04/04 02:00:40;;;;;;;12.20;2.42;;;6.50;99.90;;;;;;5157194;27;20115;-57
2021/04/04 02:03:07;;;;;;;11.00;1.60;;;6.40;99.90;;;;;;5157115;27;20399;-58
2021/04/04 02:05:35;;;;;;;10.25;2.17;;;6.50;99.90;;;;;;5156926;27;20045;-58
2021/04/04 02:08:07;;;;;;;10.45;2.00;;;6.50;99.90;;;;;;5156930;27;20069;-58
2021/04/04 02:10:36;;;;;;;12.70;2.33;;;6.50;99.90;;;;;;5157151;27;20042;-58
2021/04/04 02:13:04;;;;;;;10.02;2.03;;;6.60;99.90;;;;;;5157009;27;20049;-57
2021/04/04 02:15:32;;;;;;;10.43;2.05;;;6.60;99.90;;;;;;5156723;27;20069;-57
2021/04/04 02:18:00;;;;;;;9.40;1.95;;;6.60;99.90;;;;;;5137712;27;20047;-58
2021/04/04 02:20:30;;;;;;;14.45;2.53;;;6.60;99.90;;;;;;5156712;27;20047;-58
2021/04/04 02:22:59;;;;;;;9.88;2.70;;;6.70;99.90;;;;;;5156519;27;20506;-58
2021/04/04 02:25:26;;;;;;;10.27;2.88;;;6.60;99.90;;;;;;5156612;27;20043;-57
2021/04/04 02:27:52;;;;;;;12.25;2.95;;;6.60;99.90;;;;;;5156516;27;20383;-58
2021/04/04 02:30:19;;;;;;;8.70;2.83;;;6.60;99.90;;;;;;5156743;27;20043;-58
2021/04/04 02:33:00;;;;;;;11.23;2.63;;;6.60;99.90;;;;;;5156548;27;20392;-58
2021/04/04 02:35:33;;;;;;;10.13;2.50;;;6.60;99.90;;;;;;5156301;27;20082;-57
2021/04/04 02:38:01;;;;;;;11.88;2.80;;;6.50;99.90;;;;;;5156175;27;20069;-58
2021/04/04 02:40:29;;;;;;;13.00;3.58;;;6.50;99.90;;;;;;5156499;27;20050;-58
2021/04/04 02:42:56;;;;;;;8.85;2.75;;;6.50;99.90;;;;;;5156354;27;20043;-58
2021/04/04 02:45:25;;;;;;;13.18;2.67;;;6.50;99.90;;;;;;5156420;27;20129;-58
2021/04/04 02:48:02;;;;;;;7.95;2.22;;;6.40;99.90;;;;;;5156127;27;20073;-57
2021/04/04 02:50:28;;;;;;;9.82;2.70;;;6.40;99.90;;;;;;5156283;27;20558;-58
2021/04/04 02:53:01;;;;;;;10.75;2.40;;;6.40;99.90;;;;;;5156559;27;20161;-58
2021/04/04 02:55:36;;;;;;;9.07;2.45;;;6.40;99.90;;;;;;5137649;27;20047;-58
2021/04/04 02:58:07;;;;;;;11.70;2.70;;;6.40;99.90;;;;;;5156068;27;20042;-58
2021/04/04 03:00:39;;;;;;;10.48;2.75;;;6.40;99.90;;;;;;5155844;27;20042;-57
2021/04/04 03:03:08;;;;;;;14.32;3.50;;;6.40;99.90;;;;;;5155859;27;20049;-57
2021/04/04 03:05:34;;;;;;;10.85;3.40;;;6.40;99.90;;;;;;5155736;27;20491;-58
2021/04/04 03:08:06;;;;;;;9.35;3.53;;;6.40;99.90;;;;;;5155892;27;20045;-58
2021/04/04 03:10:34;;;;;;;14.55;3.45;;;6.40;99.90;;;;;;5155350;27;20035;-58
2021/04/04 03:13:01;;;;;;;15.77;3.50;;;6.40;99.90;;;;;;5155974;27;20038;-58
2021/04/04 03:15:29;;;;;;;13.25;3.45;;;6.40;99.90;;;;;;5155602;27;20043;-58
2021/04/04 03:17:57;;;;;;;16.33;4.10;;;6.40;99.90;;;;;;5155709;27;20065;-58
2021/04/04 03:20:25;;;;;;;14.15;3.47;;;6.40;99.90;;;;;;5155455;27;20479;-58
2021/04/04 03:22:52;;;;;;;17.65;4.40;;;6.40;99.90;;;;;;5155771;27;20047;-58
2021/04/04 03:25:19;;;;;;;14.45;4.50;;;6.40;99.90;;;;;;5155409;27;20039;-58
2021/04/04 03:27:49;;;;;;;17.08;3.78;;;6.40;99.90;;;;;;5155173;27;20042;-58
2021/04/04 03:30:35;;;;;;;12.77;4.55;;;6.40;99.90;;;;;;5155357;27;20038;-58
2021/04/04 03:33:05;;;;;;;14.93;4.68;;;6.40;99.90;;;;;;5155368;27;20039;-58
2021/04/04 03:35:33;;;;;;;15.65;5.10;;;6.40;99.90;;;;;;5155028;27;20062;-58
2021/04/04 03:38:05;;;;;;;14.07;5.30;;;6.40;99.90;;;;;;5155140;27;20051;-58
2021/04/04 03:40:31;;;;;;;15.98;5.82;;;6.40;99.90;;;;;;5155332;27;20064;-58
2021/04/04 03:43:02;;;;;;;18.17;5.45;;;6.40;99.90;;;;;;5155475;27;20042;-58
2021/04/04 03:45:28;;;;;;;16.67;5.20;;;6.40;99.90;;;;;;5155056;27;20035;-58
2021/04/04 03:47:54;;;;;;;17.65;6.00;;;6.40;99.90;;;;;;5155068;27;20043;-58
2021/04/04 03:50:21;;;;;;;15.93;5.18;;;6.40;99.90;;;;;;5154922;27;20109;-58
2021/04/04 03:52:49;;;;;;;12.57;4.85;;;6.40;99.90;;;;;;5154913;27;20043;-58
2021/04/04 03:55:18;;;;;;;10.45;5.45;;;6.40;99.90;;;;;;5154755;27;20077;-58
2021/04/04 03:57:47;;;;;;;9.35;4.88;;;6.40;99.90;;;;;;5154992;27;20104;-58
2021/04/04 04:00:13;;;;;;;14.83;5.20;;;6.40;99.90;;;;;;5154711;27;20506;-58
2021/04/04 04:02:41;;;;;;;14.80;5.47;;;6.40;99.90;;;;;;5135929;27;20070;-58
2021/04/04 04:05:08;;;;;;;14.30;5.13;;;6.40;99.90;;;;;;5154537;27;20066;-57
2021/04/04 04:07:34;;;;;;;13.02;5.68;;;6.40;99.90;;;;;;5154455;27;20476;-58
2021/04/04 04:10:02;;;;;;;12.45;5.38;;;6.40;99.90;;;;;;5154519;27;20090;-57
2021/04/04 04:12:29;;;;;;;14.65;6.25;;;6.40;99.90;;;;;;5154702;27;20045;-58
2021/04/04 04:14:57;;;;;;;15.13;6.05;;;6.50;99.90;;;;;;5154579;27;20042;-58
2021/04/04 04:17:27;;;;;;;18.77;6.13;;;6.50;99.90;;;;;;5154504;27;20067;-58
2021/04/04 04:19:53;;;;;;;14.90;6.00;;;6.40;99.90;;;;;;5154167;27;20035;-58
2021/04/04 04:22:22;;;;;;;19.38;6.95;;;6.40;99.90;;;;;;5153740;27;20530;-57
2021/04/04 04:24:49;;;;;;;14.77;6.15;;;6.40;99.90;;;;;;5154506;27;20460;-58
2021/04/04 04:27:17;;;;;;;14.77;6.88;;;6.40;99.90;;;;;;5154154;27;20046;-58
2021/04/04 04:29:47;;;;;;;23.88;7.25;;;6.40;99.90;;;;;;5154235;27;20065;-58
2021/04/04 04:32:17;;;;;;;14.00;5.70;;;6.40;99.90;;;;;;5154194;27;20035;-58
2021/04/04 04:34:44;;;;;;;13.95;5.95;;;6.40;99.90;;;;;;5153870;27;20445;-58
2021/04/04 04:37:13;;;;;;;19.23;7.03;;;6.40;99.90;;;;;;5153959;27;20502;-58
2021/04/04 04:39:41;;;;;;;12.93;5.80;;;6.40;99.90;;;;;;5154405;27;20163;-58
2021/04/04 04:42:10;;;;;;;10.88;6.05;;;6.40;99.90;;;;;;5154226;27;20075;-58
2021/04/04 04:44:39;;;;;;;15.95;6.82;;;6.40;99.90;;;;;;5153860;27;20084;-58
2021/04/04 04:47:05;;;;;;;;;;;6.50;99.90;;;;;;5154227;27;20047;-58
2021/04/04 04:49:31;;;;;;;15.85;6.78;;;6.40;99.90;;;;;;5153818;27;19919;-57
2021/04/04 04:51:57;;;;;;;18.05;6.78;;;6.40;99.90;;;;;;5153849;27;20043;-58
2021/04/04 04:54:23;;;;;;;13.60;6.10;;;6.40;99.90;;;;;;5153844;27;20086;-57
2021/04/04 04:56:49;;;;;;;18.65;7.40;;;6.30;99.90;;;;;;5153899;27;20050;-58
2021/04/04 04:59:16;;;;;;;16.85;7.50;;;6.40;99.90;;;;;;5154030;27;20054;-58
2021/04/04 05:01:46;;;;;;;14.23;6.68;;;6.40;99.90;;;;;;5153806;27;20046;-58
2021/04/04 05:04:12;;;;;;;19.25;7.55;;;6.40;99.90;;;;;;5153701;27;20137;-58
2021/04/04 05:06:39;;;;;;;20.73;7.78;;;6.40;99.90;;;;;;5153489;27;20168;-58
2021/04/04 05:09:07;;;;;;;21.35;8.55;;;6.40;99.90;;;;;;5153587;27;20095;-58
2021/04/04 05:11:43;;;;;;;14.88;7.63;;;6.30;99.90;;;;;;5153498;27;20431;-58
2021/04/04 05:14:10;;;;;;;19.17;7.35;;;6.40;99.90;;;;;;5153465;27;20034;-58
2021/04/04 05:16:36;;;;;;;19.23;7.95;;;6.40;99.90;;;;;;5153289;27;20535;-57
2021/04/04 05:19:02;;;;;;;22.10;7.95;;;6.30;99.90;;;;;;5153526;27;20113;-58
2021/04/04 05:21:30;;;;;;;19.92;8.85;;;6.40;99.90;;;;;;5153514;27;20074;-58
2021/04/04 05:23:57;;;;;;;16.73;7.85;;;6.30;99.90;;;;;;5153551;27;20035;-57
2021/04/04 05:26:31;;;;;;;24.08;8.93;;;6.40;99.90;;;;;;5153371;27;20054;-58
2021/04/04 05:29:09;;;;;;;18.15;7.43;;;6.30;99.90;;;;;;5153331;27;20050;-58
2021/04/04 05:31:44;;;;;;;22.42;7.93;;;6.30;99.90;;;;;;5153640;27;20054;-58
2021/04/04 05:34:15;;;;;;;18.27;8.50;;;6.40;99.90;;;;;;5157325;27;20507;-58
2021/04/04 05:36:47;;;;;;;14.68;7.65;;;6.40;99.90;;;;;;5157941;27;20050;-58
2021/04/04 05:39:14;;;;;;;23.27;8.35;;;6.40;99.90;;;;;;5157411;27;20137;-58
2021/04/04 05:41:46;;;;;;;21.08;8.23;;;6.40;99.90;;;;;;5157643;27;20146;-58
2021/04/04 05:44:15;;;;;;;19.92;7.47;;;6.50;99.90;;;;;;5157420;27;20046;-58
2021/04/04 05:46:44;;;;;;;18.50;7.75;;;6.50;99.90;;;;;;5157358;27;20047;-57
2021/04/04 05:49:17;;;;;;;;;;;6.50;99.90;;;;;;5157750;27;20042;-58
2021/04/04 05:51:53;;;;;;;19.08;7.50;;;6.40;99.90;;;;;;5157184;27;19922;-58
2021/04/04 05:54:39;;;;;;;17.63;6.43;;;6.40;99.90;;;;;;5157108;27;20499;-57
2021/04/04 05:57:20;;;;;;;21.48;6.95;;;6.40;99.90;;;;;;5157203;27;20074;-58
2021/04/04 05:59:48;;;;;;;21.85;7.28;;;6.40;99.90;;;;;;5157043;27;20086;-57
2021/04/04 06:02:35;;;;;;;18.05;6.63;;;6.50;99.90;;;;;;5157184;27;20042;-58
2021/04/04 06:05:22;;;;;;;17.63;7.38;;;6.50;99.90;;;;;;5157003;27;20445;-58
2021/04/04 06:07:48;;;;;;;17.63;7.00;;;6.50;99.90;;;;;;5157012;27;20049;-58
2021/04/04 06:10:40;;;;;;;17.02;7.03;;;6.50;99.90;;;;;;5156893;27;20038;-57
2021/04/04 06:13:37;;;;;;;16.00;7.32;;;6.50;99.90;;;;;;5141411;27;20561;-58
2021/04/04 06:16:33;;;;;;;17.40;7.22;;;6.50;99.90;;;;;;5156808;27;20039;-58
2021/04/04 06:19:22;;;;;;;18.38;8.07;;;6.50;99.90;;;;;;5156605;27;20110;-58
2021/04/04 06:22:02;;;;;;;18.17;7.63;;;6.50;99.90;;;;;;5156722;27;20046;-58
2021/04/04 06:24:44;;;;;;;18.38;7.03;;;6.50;99.90;;;;;;5156612;27;20053;-58
2021/04/04 06:27:38;;;;;;;18.83;8.18;;;6.50;99.90;;;;;;5156419;27;20039;-58
2021/04/04 06:33:00;;;;;;;20.70;8.18;;;6.50;99.90;;;;;;5156480;27;20046;-58
2021/04/04 06:35:42;;;;;;;25.27;7.82;;;6.50;99.90;;;;;;5156163;27;20492;-58
2021/04/04 06:38:15;;;;;;;22.77;8.85;;;6.60;99.90;;;;;;5156518;27;20053;-58
2021/04/04 06:40:49;;;;;;;20.60;8.85;;;6.50;99.90;;;;;;5156435;27;20107;-58
2021/04/04 06:43:51;;;;;;;20.42;9.00;;;6.50;99.90;;;;;;5156342;27;20047;-58
2021/04/04 06:46:54;;;;;;;21.88;8.13;;;6.60;99.90;;;;;;5156128;27;20492;-58
2021/04/04 06:49:20;;;;;;;21.27;8.48;;;6.50;99.90;;;;;;5156239;27;20078;-58
2021/04/04 06:52:00;;;;;;;26.27;8.93;;;6.50;99.90;;;;;;5155964;27;20058;-58
2021/04/04 06:54:44;;;;;;;21.08;9.07;;;6.60;99.90;;;;;;5156247;27;20043;-58
2021/04/04 06:57:45;;;;;;;19.90;8.60;;;6.60;99.90;;;;;;5156074;27;20111;-58
2021/04/04 07:00:13;;;;;;;19.00;9.18;;;6.60;99.90;;;;;;5155924;27;20037;-58
2021/04/04 07:03:08;;;;;;;26.70;9.32;;;6.60;99.90;;;;;;5155918;27;20373;-58
2021/04/04 07:05:40;;;;;;;19.27;8.70;;;6.60;99.90;;;;;;5137357;27;20038;-58
2021/04/04 07:08:30;;;;;;;18.45;8.77;;;6.60;99.90;;;;;;5155749;27;20074;-58
2021/04/04 07:11:22;;;;;;;19.10;9.10;;;6.60;99.90;;;;;;5155687;27;20034;-58
2021/04/04 07:14:25;;;;;;;24.17;8.93;;;6.60;99.90;;;;;;5155748;27;20070;-58
2021/04/04 07:17:23;;;;;;;22.75;9.02;;;6.60;99.90;;;;;;5155684;27;20056;-58
2021/04/04 07:20:00;;;;;;;23.50;8.10;;;6.70;99.90;;;;;;5155440;27;20422;-58
2021/04/04 07:22:56;;;;;;;18.85;8.48;;;6.70;99.90;;;;;;5155485;27;20034;-58
2021/04/04 07:25:33;;;;;;;24.23;8.57;;;6.70;99.90;;;;;;5155293;27;20110;-58
2021/04/04 07:28:18;;;;;;;18.08;7.80;;;6.70;99.90;;;;;;5155746;27;20042;-58
2021/04/04 07:30:54;;;;;;;20.33;8.23;;;6.70;99.90;;;;;;5155362;27;20046;-58
2021/04/04 07:33:23;;;;;;;19.35;7.93;;;6.70;99.90;;;;;;5155269;27;20480;-58
2021/04/04 07:35:53;;;;;;;20.30;7.90;;;6.70;99.90;;;;;;5155073;27;20099;-58
2021/04/04 07:38:27;;;;;;;17.27;7.70;;;6.80;99.90;;;;;;5155172;27;20087;-58
2021/04/04 07:41:09;;;;;;;21.88;7.95;;;6.80;99.90;;;;;;5155102;27;20387;-58
2021/04/04 07:43:59;;;;;;;21.38;9.18;;;6.80;99.90;;;;;;5136966;27;20108;-58
2021/04/04 07:46:31;;;;;;;18.30;7.22;;;6.80;99.90;;;;;;5154848;27;20049;-58
2021/04/04 07:49:06;;;;;;;17.80;7.93;;;6.80;99.90;;;;;;5154971;27;20043;-58
2021/04/04 07:51:36;;;;;;;30.67;8.43;;;6.80;99.90;;;;;;5154795;27;20034;-58
2021/04/04 07:54:11;;;;;;;16.55;7.13;;;6.90;99.90;;;;;;5154919;27;20034;-58
2021/04/04 07:56:43;;;;;;;20.60;8.60;;;6.90;99.90;;;;;;5153597;27;20043;-58
2021/04/04 07:59:08;;;;;;;19.05;8.00;;;6.90;99.90;;;;;;5154971;27;20463;-58
2021/04/04 08:02:02;;;;;;;16.67;7.00;;;6.90;99.90;;;;;;5154820;27;20034;-59
2021/04/04 08:04:48;;;;;;;23.27;8.82;;;7.00;99.90;;;;;;5050604;28;20080;-58
2021/04/04 08:07:24;;;;;;;29.60;7.38;;;7.00;99.90;;;;;;5050588;28;20080;-59
2021/04/04 08:10:04;;;;;;;22.00;8.27;;;7.10;99.90;;;;;;5050540;28;20107;-59
2021/04/04 08:12:42;;;;;;;16.13;6.53;;;7.10;99.90;;;;;;5050407;28;20045;-58
2021/04/04 08:15:42;;;;;;;22.27;7.15;;;7.20;99.90;;;;;;5050490;28;20533;-58
2021/04/04 08:18:08;;;;;;;22.67;6.97;;;7.10;99.90;;;;;;4991144;28;20081;-58
2021/04/04 08:20:41;;;;;;;18.90;6.35;;;7.10;99.90;;;;;;4991205;28;20551;-58
2021/04/04 08:23:16;;;;;;;18.80;7.13;;;7.20;99.90;;;;;;4991022;28;20057;-58
2021/04/04 08:25:50;;;;;;;23.30;6.90;;;7.20;99.90;;;;;;4990940;28;20054;-59
2021/04/04 08:28:25;;;;;;;18.25;6.07;;;7.20;99.90;;;;;;4991048;28;20050;-58
2021/04/04 08:30:56;;;;;;;17.85;6.13;;;7.30;99.90;;;;;;4990835;28;20050;-58
2021/04/04 08:33:22;;;;;;;24.95;7.20;;;7.40;99.90;;;;;;4990990;28;20050;-59
2021/04/04 08:35:51;;;;;;;16.10;6.35;;;7.60;99.90;;;;;;4990512;28;20050;-58
2021/04/04 08:38:26;;;;;;;27.00;6.55;;;7.50;99.90;;;;;;4990790;28;20054;-58
2021/04/04 08:40:57;;;;;;;20.15;6.32;;;7.60;99.90;;;;;;5014017;28;20117;-58
2021/04/04 08:43:24;;;;;;;18.27;5.85;;;7.50;99.90;;;;;;5069908;28;20124;-58
2021/04/04 08:46:00;;;;;;;15.85;6.20;;;7.60;99.90;;;;;;5069793;28;20120;-59
2021/04/04 08:48:27;;;;;;;19.35;5.93;;;7.60;99.90;;;;;;5069749;28;20049;-58
2021/04/04 08:50:54;;;;;;;17.15;6.82;;;7.60;99.90;;;;;;5069907;28;20106;-58
2021/04/04 08:53:27;;;;;;;19.08;6.30;;;7.60;99.90;;;;;;5069812;28;20127;-59
2021/04/04 08:55:54;;;;;;;17.63;5.28;;;7.60;99.90;;;;;;5145409;27;20061;-58
2021/04/04 08:58:33;;;;;;;15.38;5.72;;;7.70;99.90;;;;;;5153870;27;20046;-59
2021/04/04 09:01:04;;;;;;;17.27;4.97;;;7.70;99.90;;;;;;5153661;27;20050;-58
2021/04/04 09:03:33;;;;;;;17.48;4.25;;;7.60;99.90;;;;;;5153625;27;20425;-58
2021/04/04 09:06:01;;;;;;;20.95;4.32;;;7.60;99.90;;;;;;5153729;27;20043;-58
2021/04/04 09:08:29;;;;;;;14.98;3.30;;;7.50;99.90;;;;;;5153624;27;20051;-58
2021/04/04 09:10:56;;;;;;;10.13;2.80;;;7.50;99.90;;;;;;5153672;27;20134;-58
2021/04/04 09:13:22;;;;;;;9.75;3.25;;;7.50;99.90;;;;;;5153887;27;20436;-58
2021/04/04 09:15:56;;;;;;;23.02;3.75;;;7.60;99.90;;;;;;5153616;27;20047;-59
2021/04/04 09:18:23;;;;;;;16.10;4.03;;;7.60;99.90;;;;;;5153648;27;20396;-59
2021/04/04 09:20:50;;;;;;;12.48;3.50;;;7.70;99.90;;;;;;5153351;27;20135;-58
2021/04/04 09:23:19;;;;;;;16.77;3.30;;;7.60;99.90;;;;;;5153326;27;20545;-59
2021/04/04 09:25:52;;;;;;;15.15;2.55;;;7.70;99.90;;;;;;5153335;27;20045;-58
2021/04/04 09:28:18;;;;;;;17.20;2.90;;;7.70;99.90;;;;;;5153185;27;20050;-58
2021/04/04 09:30:46;;;;;;;13.52;2.50;;;7.60;99.90;;;;;;5153503;27;20392;-59
2021/04/04 09:33:18;;;;;;;17.70;2.80;;;7.70;99.90;;;;;;5153468;27;20471;-59
2021/04/04 09:35:53;;;;;;;12.68;3.17;;;7.70;99.90;;;;;;5153375;27;20055;-58
2021/04/04 09:38:19;;;;;;;6.60;2.53;;;7.70;99.90;;;;;;5153494;27;20046;-59
2021/04/04 09:40:46;;;;;;;13.95;3.40;;;7.80;99.90;;;;;;5153221;27;20051;-58
2021/04/04 09:43:14;;;;;;;11.52;2.25;;;7.90;99.90;;;;;;5153247;27;20046;-58
2021/04/04 09:45:41;;;;;;;8.23;2.33;;;8.00;99.90;;;;;;5153129;27;20043;-59
2021/04/04 09:48:18;;;;;;;11.32;2.47;;;8.10;99.90;;;;;;5153340;27;20039;-58
2021/04/04 09:50:44;;;;;;;11.02;2.70;;;8.00;99.90;;;;;;5153437;27;20046;-58
2021/04/04 09:53:10;;;;;;;11.02;2.35;;;8.00;99.90;;;;;;5153159;27;20125;-58
2021/04/04 09:55:35;;;;;;;12.07;2.58;;;8.00;99.90;;;;;;5152946;27;20134;-58
2021/04/04 09:58:03;;;;;;;11.38;2.75;;;8.00;99.90;;;;;;5153323;27;20035;-59
2021/04/04 10:00:39;;;;;;;11.00;2.33;;;8.00;99.90;;;;;;5153199;27;20087;-58
2021/04/04 10:03:18;;;;;;;12.25;3.35;;;8.10;99.90;;;;;;5152954;27;20043;-58
2021/04/04 10:05:46;;;;;;;13.05;2.63;;;8.20;99.90;;;;;;5153023;27;20043;-59
2021/04/04 10:08:22;;;;;;;9.32;2.75;;;8.20;99.90;;;;;;5152967;27;20034;-59
2021/04/04 10:10:58;;;;;;;11.63;2.85;;;8.20;99.90;;;;;;5152937;27;20056;-59
2021/04/04 10:13:26;;;;;;;15.02;2.70;;;8.20;99.90;;;;;;5152923;27;20038;-59
2021/04/04 10:15:53;;;;;;;12.05;2.88;;;8.20;99.90;;;;;;5152825;27;20076;-59
2021/04/04 10:18:20;;;;;;;9.95;2.53;;;8.20;99.90;;;;;;5152848;27;20130;-59
2021/04/04 10:20:54;;;;;;;10.63;2.67;;;8.30;99.90;;;;;;5156119;27;20083;-59
2021/04/04 10:23:31;;;;;;;15.15;3.33;;;8.20;99.90;;;;;;5157006;27;20042;-58
2021/04/04 10:25:56;;;;;;;13.02;2.55;;;8.30;99.90;;;;;;5156591;27;20047;-59
2021/04/04 10:28:23;;;;;;;11.50;3.10;;;8.20;99.90;;;;;;5156605;27;20066;-58
2021/04/04 10:30:56;;;;;;;14.45;2.90;;;8.30;99.90;;;;;;5156388;27;20039;-59
2021/04/04 10:33:25;;;;;;;12.50;2.72;;;8.20;99.90;;;;;;5156441;27;20035;-59
2021/04/04 10:35:53;;;;;;;12.90;4.60;;;8.30;99.90;;;;;;5156132;27;20059;-59
2021/04/04 10:38:21;;;;;;;12.57;2.63;;;8.30;99.90;;;;;;5137189;27;20326;-58
2021/04/04 10:40:54;;;;;;;8.85;3.15;;;8.20;99.90;;;;;;5156173;27;20369;-59
2021/04/04 10:43:41;;;;;;;16.25;2.80;;;8.20;99.90;;;;;;5156261;27;20042;-59
2021/04/04 10:46:15;;;;;;;13.35;3.70;;;8.20;99.90;;;;;;5156347;27;20046;-58
2021/04/04 10:48:48;;;;;;;16.23;3.72;;;8.20;99.90;;;;;;5155890;27;20498;-58
2021/04/04 10:51:19;;;;;;;14.18;3.55;;;8.20;99.90;;;;;;5156196;27;20042;-59
2021/04/04 10:53:46;;;;;;;15.75;2.80;;;8.20;99.90;;;;;;5155923;27;20047;-59
2021/04/04 10:56:13;;;;;;;14.95;2.92;;;8.30;99.90;;;;;;5156160;27;21147;-58
2021/04/04 10:58:40;;;;;;;18.10;3.47;;;8.20;99.90;;;;;;5156105;27;20069;-58
2021/04/04 11:01:07;;;;;;;13.43;2.85;;;8.30;99.90;;;;;;5155844;27;20480;-59
2021/04/04 11:03:33;;;;;;;14.02;2.88;;;8.30;99.90;;;;;;5155912;27;20060;-59
2021/04/04 11:06:00;;;;;;;17.83;4.20;;;8.40;99.90;;;;;;5155759;27;20075;-59
2021/04/04 11:08:26;;;;;;;19.45;3.42;;;8.40;99.90;;;;;;5155616;27;20030;-58
2021/04/04 11:10:53;;;;;;;17.67;3.42;;;8.40;99.90;;;;;;5155633;27;20491;-60
2021/04/04 11:13:21;;;;;;;15.98;4.03;;;8.30;99.90;;;;;;5155855;27;20138;-59
2021/04/04 11:16:06;;;;;;;15.40;3.05;;;8.30;99.90;;;;;;5155666;27;20035;-59
2021/04/04 11:18:39;;;;;;;14.63;3.05;;;8.40;99.90;;;;;;5155566;27;20483;-58
2021/04/04 11:21:09;;;;;;;10.55;2.63;;;8.50;99.90;;;;;;5155716;27;20085;-59
2021/04/04 11:23:37;;;;;;;10.32;2.70;;;8.50;99.90;;;;;;5155619;27;20053;-58
2021/04/04 11:26:32;;;;;;;11.70;2.97;;;8.60;99.90;;;;;;5155511;27;20039;-59
2021/04/04 11:29:23;;;;;;;8.75;2.22;;;8.80;99.90;;;;;;5155435;27;20524;-59
2021/04/04 11:31:51;;;;;;;12.07;2.60;;;8.80;99.40;;;;;;5155302;27;20043;-58
2021/04/04 11:34:40;;;;;;;9.85;2.63;;;8.80;99.80;;;;;;5155365;27;20066;-58
2021/04/04 11:37:26;;;;;;;12.63;2.97;;;8.90;99.80;;;;;;5155275;27;20043;-59
2021/04/04 11:40:23;;;;;;;10.05;3.20;;;9.00;99.30;;;;;;5155250;27;20055;-59
2021/04/04 11:43:10;;;;;;;11.57;2.60;;;9.00;99.20;;;;;;5155368;27;20081;-59
2021/04/04 11:45:37;;;;;;;10.38;2.35;;;9.00;99.60;;;;;;5051204;28;20379;-59
2021/04/04 11:48:28;;;;;;;13.80;2.90;;;9.10;99.80;;;;;;5051157;28;20128;-60
2021/04/04 11:50:54;;;;;;;13.30;2.85;;;9.10;99.10;;;;;;5051019;28;20053;-59
2021/04/04 11:53:40;;;;;;;13.02;2.85;;;9.10;99.20;;;;;;5050911;28;20464;-59
2021/04/04 11:56:06;;;;;;;13.18;2.95;;;9.20;99.20;;;;;;5051059;28;20061;-59
2021/04/04 11:58:32;;;;;;;12.05;2.65;;;9.20;99.30;;;;;;5050807;28;20560;-59
2021/04/04 12:00:59;;;;;;;10.63;2.78;;;9.30;98.90;;;;;;5050749;28;20463;-60
2021/04/04 12:03:25;;;;;;;13.43;3.45;;;9.30;99.40;;;;;;5050642;28;20098;-59
2021/04/04 12:05:51;;;;;;;15.43;2.55;;;9.30;99.20;;;;;;5050529;28;20045;-59
2021/04/04 12:08:27;;;;;;;17.70;3.10;;;9.20;99.40;;;;;;5050557;28;20045;-59
2021/04/04 12:10:53;;;;;;;16.02;3.33;;;9.20;99.70;;;;;;5050589;28;20049;-59
2021/04/04 12:13:19;;;;;;;23.08;3.20;;;9.10;98.50;;;;;;5050439;28;20041;-59
2021/04/04 12:15:45;;;;;;;15.48;3.38;;;9.00;98.30;;;;;;5050400;28;20063;-59
2021/04/04 12:18:11;;;;;;;16.30;3.13;;;9.00;99.30;;;;;;5050373;28;20048;-59
2021/04/04 12:20:39;;;;;;;10.40;3.08;;;9.00;99.70;;;;;;5050528;28;20048;-59
2021/04/04 12:23:10;;;;;;;16.20;4.20;;;8.90;99.90;;;;;;5119127;27;20057;-59
2021/04/04 12:25:36;;;;;;;12.68;3.47;;;8.90;99.90;;;;;;5153971;27;20045;-59
2021/04/04 12:28:03;;;;;;;13.38;3.40;;;8.90;99.90;;;;;;5154189;27;20035;-59
2021/04/04 12:30:34;;;;;;;16.65;3.20;;;8.90;99.70;;;;;;5154180;27;20480;-59
2021/04/04 12:33:03;;;;;;;12.73;3.25;;;8.90;99.90;;;;;;5154220;27;20043;-59
2021/04/04 12:35:28;;;;;;;11.60;3.00;;;8.90;99.90;;;;;;5153957;27;20381;-59
2021/04/04 12:37:55;;;;;;;12.80;3.45;;;8.90;98.60;;;;;;5153852;27;20280;-59
2021/04/04 12:40:22;;;;;;;15.00;3.78;;;8.80;99.50;;;;;;5154314;27;20126;-59
2021/04/04 12:42:57;;;;;;;18.20;3.38;;;8.90;99.80;;;;;;5153324;27;20080;-58
2021/04/04 12:45:24;;;;;;;18.17;3.17;;;8.90;99.70;;;;;;5153989;27;20034;-59
2021/04/04 12:47:50;;;;;;;12.88;3.47;;;8.90;99.90;;;;;;5154009;27;20115;-59
2021/04/04 12:50:22;;;;;;;14.88;4.03;;;8.80;99.50;;;;;;5153735;27;20047;-59
2021/04/04 12:52:52;;;;;;;14.25;3.15;;;8.80;99.90;;;;;;5154159;27;20170;-59
2021/04/04 12:55:27;;;;;;;13.75;3.30;;;8.70;99.80;;;;;;5153970;27;20049;-59
2021/04/04 12:58:13;;;;;;;17.15;3.58;;;8.60;99.50;;;;;;5153599;27;20050;-59
2021/04/04 13:00:41;;;;;;;15.05;3.78;;;8.60;99.90;;;;;;5153688;27;20039;-59
2021/04/04 13:03:11;;;;;;;19.45;4.30;;;8.50;99.90;;;;;;5153481;27;20043;-59
2021/04/04 13:05:41;;;;;;;18.42;3.60;;;8.50;99.90;;;;;;5153751;27;20091;-59
2021/04/04 13:08:12;;;;;;;15.18;4.38;;;8.50;99.90;;;;;;5153526;27;20038;-59
2021/04/04 13:10:38;;;;;;;15.80;4.00;;;8.60;99.90;;;;;;5153830;27;20111;-59
2021/04/04 13:13:29;;;;;;;16.40;3.80;;;8.60;99.90;;;;;;5153858;27;20045;-58
2021/04/04 13:16:00;;;;;;;14.02;4.10;;;8.50;99.90;;;;;;5135308;27;20463;-59